Time;durP1;ratioP1;P1;durP2;ratioP2;P2;SDS_P1;SDS_P2;PMS_P1;PMS_P2;Temp;Humidity;BMP_temperature;BMP_pressure;BME280_temperature;BME280_humidity;BME280_pressure;Samples;Min_cycle;Max_cycle;Signal;HPM_P1;HPM_P2
2023/03/31 00:00:31;;;;;;;7.35;2.45;;;10.00;99.90;;;;;;2603455;54;20884;31
2023/03/31 00:03:08;;;;;;;;;;;10.00;99.90;;;;;;2603934;54;20027;31
2023/03/31 00:05:46;;;;;;;5.80;2.05;;;10.00;99.90;;;;;;2603385;54;20661;31
2023/03/31 00:08:22;;;;;;;6.28;2.25;;;10.00;99.90;;;;;;2603525;54;20888;31
2023/03/31 00:11:01;;;;;;;;;;;9.90;99.90;;;;;;2603124;54;20092;31
2023/03/31 00:13:38;;;;;;;6.10;2.78;;;9.90;99.90;;;;;;2603548;54;19985;31
2023/03/31 00:16:16;;;;;;;5.97;2.78;;;9.90;99.90;;;;;;2603603;54;20023;31
2023/03/31 00:18:52;;;;;;;6.75;2.50;;;9.90;99.90;;;;;;2603352;54;20027;31
2023/03/31 00:21:32;;;;;;;6.03;2.42;;;9.80;99.90;;;;;;2701786;39;20540;31
2023/03/31 00:24:08;;;;;;;6.97;2.92;;;9.80;99.90;;;;;;2603324;54;20108;31
2023/03/31 00:26:44;;;;;;;6.25;2.50;;;9.80;99.90;;;;;;2603434;54;20027;31
2023/03/31 00:29:23;;;;;;;6.00;2.53;;;9.80;99.90;;;;;;2622317;46;20875;31
2023/03/31 00:32:00;;;;;;;8.80;2.60;;;9.80;99.90;;;;;;2603627;54;20844;31
2023/03/31 00:34:37;;;;;;;6.60;3.30;;;9.70;99.90;;;;;;2603464;54;20867;31
2023/03/31 00:37:14;;;;;;;6.15;3.45;;;9.70;99.90;;;;;;2603213;54;20778;31
2023/03/31 00:39:51;;;;;;;6.78;3.08;;;9.60;99.90;;;;;;2603382;54;20038;31
2023/03/31 00:42:26;;;;;;;6.80;2.90;;;9.60;99.90;;;;;;2602529;54;20126;31
2023/03/31 00:45:29;;;;;;;7.68;3.22;;;9.50;99.90;;;;;;2603331;54;20045;31
2023/03/31 00:48:08;;;;;;;5.82;3.08;;;9.40;99.90;;;;;;2603362;54;20023;31
2023/03/31 00:50:46;;;;;;;3.40;2.60;;;9.40;99.90;;;;;;2602510;54;20022;31
2023/03/31 00:53:23;;;;;;;7.72;3.25;;;9.40;99.90;;;;;;2621583;46;20910;31
2023/03/31 00:55:59;;;;;;;4.55;2.05;;;9.30;99.90;;;;;;2613381;46;20923;31
2023/03/31 00:58:42;;;;;;;6.32;2.10;;;9.30;99.90;;;;;;2701789;39;20416;31
2023/03/31 01:01:23;;;;;;;3.90;2.65;;;9.30;99.90;;;;;;2603467;54;20824;31
2023/03/31 01:03:58;;;;;;;6.28;2.60;;;9.20;99.90;;;;;;2603307;54;20103;31
2023/03/31 01:06:33;;;;;;;6.68;2.55;;;9.20;99.90;;;;;;2621516;46;20882;31
2023/03/31 01:09:09;;;;;;;4.60;2.33;;;9.10;99.90;;;;;;2603231;54;20147;31
2023/03/31 01:11:45;;;;;;;5.72;2.65;;;9.10;99.90;;;;;;2603182;54;20135;31
2023/03/31 01:14:22;;;;;;;4.30;2.10;;;9.10;99.90;;;;;;2603150;54;20797;31
2023/03/31 01:17:01;;;;;;;6.65;3.30;;;9.00;99.90;;;;;;2701925;39;20454;31
2023/03/31 01:19:46;;;;;;;9.43;3.10;;;9.00;99.90;;;;;;2603261;54;20107;31
2023/03/31 01:22:58;;;;;;;5.68;3.45;;;8.90;99.90;;;;;;2603346;54;20862;31
2023/03/31 01:26:08;;;;;;;6.25;3.20;;;8.90;99.90;;;;;;2621528;46;20945;31
2023/03/31 01:28:43;;;;;;;8.00;3.25;;;8.70;99.90;;;;;;2603198;54;20082;31
2023/03/31 01:31:45;;;;;;;5.00;2.42;;;8.70;99.90;;;;;;2603242;54;20910;31
2023/03/31 01:34:43;;;;;;;7.63;3.73;;;8.60;99.90;;;;;;2701432;39;20563;31
2023/03/31 01:37:40;;;;;;;9.32;4.60;;;8.50;99.90;;;;;;2603537;54;20577;31
2023/03/31 01:40:40;;;;;;;11.15;5.50;;;8.50;99.90;;;;;;2701448;39;20501;31
2023/03/31 01:43:18;;;;;;;8.13;4.00;;;8.40;99.90;;;;;;2603099;54;20103;31
2023/03/31 01:45:57;;;;;;;8.90;3.80;;;8.40;99.90;;;;;;2603482;54;20874;31
2023/03/31 01:48:38;;;;;;;7.23;3.10;;;8.30;99.90;;;;;;2603032;54;21333;31
2023/03/31 01:51:15;;;;;;;9.73;3.80;;;8.30;99.90;;;;;;2603226;54;20082;31
2023/03/31 01:53:52;;;;;;;7.85;3.60;;;8.30;99.90;;;;;;2603017;54;20083;31
2023/03/31 01:59:05;;;;;;;7.40;3.53;;;8.20;99.90;;;;;;2603000;54;20037;31
2023/03/31 02:01:43;;;;;;;11.10;3.97;;;8.20;99.90;;;;;;2603261;54;20027;31
2023/03/31 02:04:20;;;;;;;7.03;4.35;;;8.10;99.90;;;;;;2603243;54;20850;31
2023/03/31 02:06:58;;;;;;;5.75;3.00;;;8.10;99.90;;;;;;2701763;39;20934;31
2023/03/31 02:09:34;;;;;;;7.75;3.08;;;8.10;99.90;;;;;;2615522;47;20961;31
2023/03/31 02:12:11;;;;;;;8.18;3.58;;;8.10;99.90;;;;;;2603009;54;20052;31
2023/03/31 02:14:50;;;;;;;8.55;4.50;;;8.00;99.90;;;;;;2602888;54;20082;31
2023/03/31 02:17:29;;;;;;;5.22;3.42;;;8.00;99.90;;;;;;2621127;47;20034;31
2023/03/31 02:20:07;;;;;;;8.32;4.55;;;7.90;99.90;;;;;;2603106;54;20028;31
2023/03/31 02:22:44;;;;;;;8.25;4.10;;;7.90;99.90;;;;;;2603291;54;20027;31
2023/03/31 02:25:23;;;;;;;7.63;3.95;;;7.80;99.90;;;;;;2603994;54;21625;31
2023/03/31 02:28:01;;;;;;;9.73;4.00;;;7.80;99.90;;;;;;2603901;54;20027;31
2023/03/31 02:30:43;;;;;;;7.47;4.57;;;7.80;99.90;;;;;;2603829;54;20038;31
2023/03/31 02:33:19;;;;;;;10.25;5.20;;;7.70;99.90;;;;;;2603698;54;20029;31
2023/03/31 02:35:56;;;;;;;;;;;7.70;99.90;;;;;;2604106;54;20148;31
2023/03/31 02:38:32;;;;;;;8.50;4.15;;;7.70;99.90;;;;;;2702690;39;20954;31
2023/03/31 02:41:08;;;;;;;6.65;3.80;;;7.60;99.90;;;;;;2603898;54;20811;31
2023/03/31 02:43:45;;;;;;;10.33;4.00;;;7.60;99.90;;;;;;2617874;46;20052;31
2023/03/31 02:46:27;;;;;;;6.27;3.40;;;7.60;99.90;;;;;;2622426;46;20065;31
2023/03/31 02:49:03;;;;;;;7.80;4.63;;;7.50;99.90;;;;;;2603725;54;20118;31
2023/03/31 02:52:11;;;;;;;8.55;4.90;;;7.50;99.90;;;;;;2603746;54;20763;31
2023/03/31 02:55:04;;;;;;;10.65;5.03;;;7.50;99.90;;;;;;2603496;54;20049;31
2023/03/31 02:58:11;;;;;;;10.15;5.20;;;7.50;99.90;;;;;;2603798;54;20033;31
2023/03/31 03:00:56;;;;;;;9.73;5.05;;;7.50;99.90;;;;;;2603730;54;20042;31
2023/03/31 03:03:31;;;;;;;10.73;4.93;;;7.40;99.90;;;;;;2622537;46;20073;31
2023/03/31 03:06:15;;;;;;;10.93;5.57;;;7.40;99.90;;;;;;2603284;54;20680;31
2023/03/31 03:09:07;;;;;;;12.95;6.45;;;7.40;99.90;;;;;;2721201;39;21014;31
2023/03/31 03:11:48;;;;;;;11.93;7.17;;;7.40;99.90;;;;;;2603712;54;20033;31
2023/03/31 03:14:28;;;;;;;10.23;6.43;;;7.30;99.90;;;;;;2611607;46;20127;31
2023/03/31 03:17:03;;;;;;;9.18;6.60;;;7.30;99.90;;;;;;2701997;39;21490;31
2023/03/31 03:19:43;;;;;;;11.20;6.90;;;7.30;99.90;;;;;;2602909;54;20881;31
2023/03/31 03:22:20;;;;;;;12.15;6.50;;;7.30;99.90;;;;;;2602874;54;20079;31
2023/03/31 03:24:56;;;;;;;9.87;5.90;;;7.30;99.90;;;;;;2621987;46;20053;31
2023/03/31 03:27:32;;;;;;;8.52;5.50;;;7.20;99.90;;;;;;2603623;54;20243;31
2023/03/31 03:30:09;;;;;;;9.00;5.20;;;7.20;99.90;;;;;;2603469;54;20143;31
2023/03/31 03:32:46;;;;;;;7.85;5.85;;;7.20;99.90;;;;;;2622160;46;20081;31
2023/03/31 03:35:21;;;;;;;9.83;6.30;;;7.20;99.90;;;;;;2603622;54;20035;31
2023/03/31 03:38:01;;;;;;;10.55;6.68;;;7.20;99.90;;;;;;2603591;54;20036;31
2023/03/31 03:40:36;;;;;;;13.63;7.47;;;7.10;99.90;;;;;;2603744;54;20038;31
2023/03/31 03:43:11;;;;;;;15.10;6.63;;;7.10;99.90;;;;;;2603427;54;19935;31
2023/03/31 03:45:50;;;;;;;12.63;7.93;;;7.10;99.90;;;;;;2603714;54;20029;31
2023/03/31 03:48:26;;;;;;;11.50;6.90;;;7.10;99.90;;;;;;2603590;54;20599;31
2023/03/31 03:51:02;;;;;;;8.97;5.70;;;7.10;99.90;;;;;;2603058;54;20060;31
2023/03/31 03:53:40;;;;;;;9.82;6.85;;;7.00;99.90;;;;;;2603550;54;20284;31
2023/03/31 03:56:16;;;;;;;12.23;5.95;;;7.00;99.90;;;;;;2621789;46;20664;31
2023/03/31 03:58:51;;;;;;;10.50;6.38;;;7.00;99.90;;;;;;2603732;54;20784;31
2023/03/31 04:01:27;;;;;;;9.70;6.38;;;7.00;99.90;;;;;;2603603;54;20145;31
2023/03/31 04:04:03;;;;;;;8.35;6.07;;;7.00;99.90;;;;;;2701941;39;20480;31
2023/03/31 04:06:38;;;;;;;;;;;6.90;99.90;;;;;;2603819;54;20033;31
2023/03/31 04:09:18;;;;;;;12.75;7.07;;;6.90;99.90;;;;;;2603468;54;20012;31
2023/03/31 04:11:54;;;;;;;12.07;7.00;;;6.90;99.90;;;;;;2603580;54;20027;31
2023/03/31 04:14:32;;;;;;;12.02;7.05;;;6.80;99.90;;;;;;2603602;54;20878;31
2023/03/31 04:19:42;;;;;;;12.00;7.73;;;6.80;99.90;;;;;;2603555;54;20030;31
2023/03/31 04:22:19;;;;;;;11.95;6.97;;;6.70;99.90;;;;;;2603447;54;20824;31
2023/03/31 04:24:57;;;;;;;9.55;6.55;;;6.70;99.90;;;;;;2614547;46;20873;31
2023/03/31 04:27:34;;;;;;;15.85;8.27;;;6.70;99.90;;;;;;2621997;46;20125;31
2023/03/31 04:30:21;;;;;;;10.88;7.43;;;6.70;99.90;;;;;;2603322;54;20035;31
2023/03/31 04:32:57;;;;;;;11.43;7.18;;;6.70;99.90;;;;;;2621970;46;20081;31
2023/03/31 04:35:48;;;;;;;15.57;9.20;;;6.60;99.90;;;;;;2603070;54;20035;31
2023/03/31 04:38:25;;;;;;;13.60;9.65;;;6.60;99.90;;;;;;2603411;54;20042;31
2023/03/31 04:41:05;;;;;;;15.35;9.60;;;6.60;99.90;;;;;;2621388;46;20863;31
2023/03/31 04:43:41;;;;;;;14.65;9.55;;;6.60;99.90;;;;;;2603487;54;20936;31
2023/03/31 04:46:17;;;;;;;14.93;9.80;;;6.60;99.90;;;;;;2602125;54;20022;31
2023/03/31 04:48:55;;;;;;;11.15;6.80;;;6.60;99.90;;;;;;2603280;54;20765;31
2023/03/31 04:51:29;;;;;;;17.30;10.10;;;6.70;99.90;;;;;;2621643;46;20401;31
2023/03/31 04:54:08;;;;;;;12.93;9.02;;;6.70;99.90;;;;;;2603297;54;20053;31
2023/03/31 04:56:47;;;;;;;14.52;8.45;;;6.80;99.90;;;;;;2602581;54;20909;31
2023/03/31 04:59:23;;;;;;;17.38;8.25;;;6.70;99.90;;;;;;2621306;46;20079;31
2023/03/31 05:02:01;;;;;;;45.97;14.10;;;6.70;99.90;;;;;;2603470;54;20034;31
2023/03/31 05:04:37;;;;;;;23.75;10.13;;;6.70;99.90;;;;;;2611203;46;20030;31
2023/03/31 05:07:12;;;;;;;;;;;6.80;99.90;;;;;;2602798;54;21015;31
2023/03/31 05:09:48;;;;;;;26.58;11.30;;;6.80;99.90;;;;;;2603448;54;19934;31
2023/03/31 05:12:26;;;;;;;19.63;10.18;;;6.80;99.90;;;;;;2621752;46;20092;31
2023/03/31 05:15:04;;;;;;;14.77;8.85;;;6.80;99.90;;;;;;2603269;54;20052;31
2023/03/31 05:17:42;;;;;;;11.93;8.68;;;6.80;99.90;;;;;;2621844;46;20027;31
2023/03/31 05:20:18;;;;;;;11.15;8.18;;;6.90;99.90;;;;;;2603139;54;20077;31
2023/03/31 05:22:54;;;;;;;10.23;6.93;;;6.90;99.90;;;;;;2603163;54;20077;31
2023/03/31 05:25:31;;;;;;;13.40;7.65;;;6.90;99.90;;;;;;2603527;54;20030;31
2023/03/31 05:28:10;;;;;;;12.88;8.38;;;7.00;99.90;;;;;;2603343;54;20915;31
2023/03/31 05:30:45;;;;;;;13.05;8.27;;;7.00;99.90;;;;;;2603502;54;20111;31
2023/03/31 05:33:21;;;;;;;7.68;6.18;;;7.10;99.90;;;;;;2603184;54;20030;31
2023/03/31 05:35:56;;;;;;;10.25;6.60;;;7.20;99.90;;;;;;2603252;54;20906;31
2023/03/31 05:38:33;;;;;;;10.73;6.60;;;7.30;99.90;;;;;;2603161;54;20042;31
2023/03/31 05:41:11;;;;;;;8.77;6.65;;;7.40;99.90;;;;;;2603323;54;20031;31
2023/03/31 05:43:45;;;;;;;12.88;7.88;;;7.60;99.90;;;;;;2603154;54;20570;31
2023/03/31 05:46:26;;;;;;;10.10;7.88;;;7.70;99.90;;;;;;2603227;54;20037;31
2023/03/31 05:49:01;;;;;;;10.10;6.70;;;7.80;99.90;;;;;;2602279;54;20026;31
2023/03/31 05:51:36;;;;;;;11.50;7.10;;;8.10;99.90;;;;;;2603042;54;20143;31
2023/03/31 05:54:12;;;;;;;10.60;6.67;;;8.40;99.90;;;;;;2603169;54;25060;31
2023/03/31 05:56:48;;;;;;;7.22;5.70;;;8.90;99.90;;;;;;2602307;54;20037;31
2023/03/31 05:59:25;;;;;;;7.90;5.57;;;9.20;99.90;;;;;;2720839;39;20493;31
2023/03/31 06:02:04;;;;;;;10.05;4.93;;;9.70;99.90;;;;;;2603388;46;20772;31
2023/03/31 06:04:42;;;;;;;8.40;4.40;;;10.10;99.90;;;;;;2603119;54;20092;31
2023/03/31 06:07:21;;;;;;;6.45;4.78;;;10.40;99.90;;;;;;2604159;54;20026;31
2023/03/31 06:09:57;;;;;;;6.88;5.13;;;10.50;99.90;;;;;;2603866;54;20934;31
2023/03/31 06:12:35;;;;;;;7.83;4.37;;;10.60;99.90;;;;;;2603020;54;20895;31
2023/03/31 06:15:13;;;;;;;7.60;4.90;;;10.70;99.90;;;;;;2603913;54;20740;31
2023/03/31 06:17:52;;;;;;;8.52;5.25;;;10.80;99.90;;;;;;2603645;54;20085;31
2023/03/31 06:20:30;;;;;;;8.10;5.00;;;10.80;98.70;;;;;;2603956;54;20026;31
2023/03/31 06:23:06;;;;;;;6.40;5.00;;;10.90;97.50;;;;;;2603925;54;20062;31
2023/03/31 06:25:42;;;;;;;9.60;5.28;;;10.90;98.00;;;;;;2603226;54;20030;31
2023/03/31 06:28:26;;;;;;;9.25;5.22;;;10.90;97.60;;;;;;2603724;54;20026;31
2023/03/31 06:31:06;;;;;;;9.70;5.20;;;10.90;96.70;;;;;;2622316;46;20026;31
2023/03/31 06:33:47;;;;;;;8.00;4.38;;;11.10;97.00;;;;;;2604116;54;20026;31
2023/03/31 06:36:21;;;;;;;9.93;4.87;;;11.40;98.90;;;;;;2603964;54;20026;31
2023/03/31 06:38:57;;;;;;;10.32;5.07;;;11.60;92.50;;;;;;2622393;46;20840;31
2023/03/31 06:41:35;;;;;;;8.10;5.00;;;11.80;99.30;;;;;;2702122;39;20496;31
2023/03/31 06:44:11;;;;;;;7.18;5.10;;;12.10;99.90;;;;;;2611750;46;20033;31
2023/03/31 06:46:46;;;;;;;8.43;4.38;;;12.60;99.90;;;;;;2716396;39;20509;31
2023/03/31 06:49:24;;;;;;;9.13;4.17;;;13.20;99.90;;;;;;2603842;54;20056;31
2023/03/31 06:52:00;;;;;;;8.70;4.10;;;13.90;99.90;;;;;;2622316;46;20030;31
2023/03/31 06:54:36;;;;;;;6.57;3.60;;;14.60;99.90;;;;;;2603766;54;20030;31
2023/03/31 06:57:16;;;;;;;8.80;3.60;;;14.90;99.90;;;;;;2603772;54;20896;31
2023/03/31 06:59:54;;;;;;;8.27;3.85;;;15.10;99.90;;;;;;2603886;54;20239;31
2023/03/31 07:02:31;;;;;;;5.13;3.50;;;15.10;99.90;;;;;;2720667;39;20466;31
2023/03/31 07:05:11;;;;;;;8.63;3.63;;;15.00;99.90;;;;;;2622072;46;20034;31
2023/03/31 07:07:49;;;;;;;4.30;3.30;;;15.00;99.90;;;;;;2603542;54;20906;31
2023/03/31 07:10:25;;;;;;;5.27;3.70;;;14.90;15.80;;;;;;2622051;47;20897;31
2023/03/31 07:13:01;;;;;;;;;;;14.90;14.30;;;;;;2774073;31;20623;31
2023/03/31 07:15:39;;;;;;;8.50;3.63;;;14.80;13.60;;;;;;2603781;54;20815;31
2023/03/31 07:18:18;;;;;;;5.75;3.20;;;14.70;11.20;;;;;;2602858;54;20800;31
2023/03/31 07:20:56;;;;;;;5.65;3.72;;;14.70;11.90;;;;;;2603181;54;20041;31
2023/03/31 07:23:34;;;;;;;5.63;3.92;;;14.70;13.40;;;;;;2603784;54;20558;31
2023/03/31 07:26:10;;;;;;;8.13;3.97;;;14.60;10.00;;;;;;2603425;54;20829;31
2023/03/31 07:28:46;;;;;;;7.28;3.97;;;14.40;9.60;;;;;;2603771;54;20034;31
2023/03/31 07:31:24;;;;;;;7.40;3.97;;;14.30;10.60;;;;;;2603289;54;20038;31
2023/03/31 07:33:59;;;;;;;7.63;3.90;;;14.20;12.00;;;;;;2603419;54;20100;31
2023/03/31 07:36:39;;;;;;;8.43;4.17;;;14.10;14.40;;;;;;2603218;54;20101;31
2023/03/31 07:39:16;;;;;;;13.52;5.10;;;14.10;14.90;;;;;;2603704;54;20057;31
2023/03/31 07:41:52;;;;;;;9.45;5.25;;;14.10;18.30;;;;;;2603641;54;20022;31
2023/03/31 07:44:28;;;;;;;7.72;4.95;;;14.00;18.30;;;;;;2617141;46;20034;31
2023/03/31 07:47:07;;;;;;;8.90;5.00;;;13.90;21.10;;;;;;2603761;54;20031;31
2023/03/31 07:49:42;;;;;;;8.45;5.28;;;13.90;23.40;;;;;;2603413;54;20756;31
2023/03/31 07:52:22;;;;;;;8.83;5.83;;;13.80;26.60;;;;;;2603733;54;20879;31
2023/03/31 07:54:58;;;;;;;10.43;6.18;;;13.80;26.50;;;;;;2602817;54;20107;31
2023/03/31 07:57:35;;;;;;;11.40;6.45;;;13.90;27.50;;;;;;2602670;54;20854;31
2023/03/31 08:00:14;;;;;;;9.90;6.05;;;13.90;24.30;;;;;;2620876;46;20029;31
2023/03/31 08:02:51;;;;;;;10.43;6.13;;;14.20;24.90;;;;;;2603534;54;20863;31
2023/03/31 08:05:29;;;;;;;11.65;6.45;;;14.40;23.40;;;;;;2622049;46;19934;31
2023/03/31 08:08:03;;;;;;;9.95;5.80;;;14.90;22.20;;;;;;2603626;54;20592;31
2023/03/31 08:10:42;;;;;;;12.50;5.95;;;15.50;15.50;;;;;;2603275;54;20053;31
2023/03/31 08:13:20;;;;;;;7.85;5.55;;;16.10;9.80;;;;;;2622133;46;20030;31
2023/03/31 08:15:54;;;;;;;9.77;5.32;;;16.50;1.00;;;;;;2622017;46;20038;31
2023/03/31 08:18:30;;;;;;;7.17;5.37;;;16.90;1.00;;;;;;2602838;54;20026;31
2023/03/31 08:21:05;;;;;;;;;;;17.20;1.00;;;;;;2602965;54;20860;31
2023/03/31 08:23:50;;;;;;;10.13;5.43;;;17.50;1.00;;;;;;2621445;46;20000;31
2023/03/31 08:26:30;;;;;;;11.95;6.03;;;17.70;1.00;;;;;;2603418;54;21449;31
2023/03/31 08:29:11;;;;;;;8.60;5.40;;;17.50;1.00;;;;;;2603463;54;20027;31
2023/03/31 08:31:47;;;;;;;10.37;5.30;;;17.40;1.00;;;;;;2603096;54;20034;31
2023/03/31 08:34:25;;;;;;;8.48;5.13;;;17.20;1.00;;;;;;2603177;54;20903;31
2023/03/31 08:37:00;;;;;;;4.85;4.15;;;17.10;1.00;;;;;;2603356;54;20889;31
2023/03/31 08:39:41;;;;;;;7.47;5.53;;;17.10;1.00;;;;;;2621861;46;20129;31
2023/03/31 08:42:15;;;;;;;9.02;5.18;;;17.00;1.00;;;;;;2603391;54;20026;31
2023/03/31 08:44:57;;;;;;;7.85;5.40;;;16.80;1.00;;;;;;2603267;54;20927;31
2023/03/31 08:47:33;;;;;;;9.05;5.60;;;16.70;1.00;;;;;;2621862;46;20022;31
2023/03/31 08:50:10;;;;;;;8.75;5.22;;;16.60;1.00;;;;;;2603187;54;20022;31
2023/03/31 08:52:47;;;;;;;9.02;5.90;;;16.60;1.00;;;;;;2603124;54;20041;31
2023/03/31 08:55:27;;;;;;;6.68;5.07;;;16.60;1.00;;;;;;2621603;46;20029;31
2023/03/31 08:58:03;;;;;;;8.00;5.45;;;16.70;1.00;;;;;;2603375;54;20860;31
2023/03/31 09:00:46;;;;;;;7.65;5.10;;;16.70;1.00;;;;;;2603045;54;20031;31
2023/03/31 09:03:26;;;;;;;8.85;4.95;;;16.70;1.00;;;;;;2655145;39;20361;31
2023/03/31 09:06:03;;;;;;;6.80;4.82;;;16.70;1.00;;;;;;2603261;54;20050;31
2023/03/31 09:08:41;;;;;;;7.05;4.60;;;16.70;1.00;;;;;;2621525;46;20037;31
2023/03/31 09:11:22;;;;;;;6.55;5.55;;;16.90;1.00;;;;;;2603143;54;20022;31
2023/03/31 09:14:09;;;;;;;11.30;5.53;;;17.00;1.00;;;;;;2603409;54;20849;31
2023/03/31 09:16:48;;;;;;;;;;;17.30;1.00;;;;;;2603511;54;20048;31
2023/03/31 09:19:30;;;;;;;9.02;4.75;;;17.50;1.00;;;;;;2603092;54;19934;31
2023/03/31 09:22:08;;;;;;;8.40;4.68;;;17.70;1.00;;;;;;2603218;54;20108;31
2023/03/31 09:24:50;;;;;;;7.87;4.47;;;17.80;1.00;;;;;;2603426;54;20060;31
2023/03/31 09:27:26;;;;;;;7.88;3.97;;;17.90;1.00;;;;;;2621549;46;20053;31
2023/03/31 09:30:03;;;;;;;;;;;17.80;1.00;;;;;;2603267;54;20120;31
2023/03/31 09:32:43;;;;;;;4.95;2.75;;;17.80;1.00;;;;;;2620885;46;20751;31
2023/03/31 09:35:20;;;;;;;5.90;2.65;;;17.70;1.00;;;;;;2616456;46;20875;31
2023/03/31 09:38:00;;;;;;;6.10;2.42;;;17.70;1.00;;;;;;2719875;39;20327;31
2023/03/31 09:40:34;;;;;;;4.55;1.60;;;17.60;1.00;;;;;;2603248;54;20070;31
2023/03/31 09:43:10;;;;;;;3.65;1.83;;;17.40;1.00;;;;;;2621335;47;20022;31
2023/03/31 09:45:45;;;;;;;;;;;17.30;1.00;;;;;;2603217;54;20104;31
2023/03/31 09:48:40;;;;;;;5.90;3.05;;;17.10;1.00;;;;;;2602807;54;19957;31
2023/03/31 09:51:18;;;;;;;5.70;2.60;;;16.90;1.00;;;;;;2603107;54;20042;31
2023/03/31 09:53:53;;;;;;;5.65;2.30;;;16.80;1.00;;;;;;2621591;47;20023;31
2023/03/31 09:56:36;;;;;;;5.70;2.70;;;16.70;1.00;;;;;;2603155;54;20034;31
2023/03/31 09:59:16;;;;;;;4.83;2.47;;;16.50;1.00;;;;;;2602997;54;20038;31
2023/03/31 10:01:55;;;;;;;6.90;3.15;;;16.40;1.00;;;;;;2621401;47;19941;31
2023/03/31 10:07:07;;;;;;;4.72;2.55;;;16.20;1.00;;;;;;2602879;54;20803;31
2023/03/31 10:09:42;;;;;;;7.13;2.72;;;16.10;1.00;;;;;;2605293;47;20066;31
2023/03/31 10:12:23;;;;;;;5.35;2.45;;;16.10;1.00;;;;;;2602348;54;20851;31
2023/03/31 10:15:05;;;;;;;5.55;3.00;;;16.10;1.00;;;;;;2607716;47;20030;31
2023/03/31 10:17:42;;;;;;;7.35;3.75;;;16.00;1.00;;;;;;2602739;54;20046;31
2023/03/31 10:20:36;;;;;;;9.68;3.50;;;15.90;1.00;;;;;;2602916;54;20775;31
2023/03/31 10:23:20;;;;;;;6.28;3.28;;;15.80;1.00;;;;;;2602801;54;20883;31
2023/03/31 10:25:58;;;;;;;5.72;2.92;;;15.80;1.00;;;;;;2602792;54;20042;31
2023/03/31 10:28:32;;;;;;;4.95;2.70;;;15.80;1.00;;;;;;2621206;47;20940;31
2023/03/31 10:31:10;;;;;;;7.03;3.70;;;15.80;1.00;;;;;;2603054;54;20042;31
2023/03/31 10:33:48;;;;;;;6.72;3.25;;;15.80;1.00;;;;;;2602841;54;20095;31
2023/03/31 10:36:27;;;;;;;7.90;3.00;;;15.80;1.00;;;;;;2602873;54;20029;31
2023/03/31 10:41:40;;;;;;;5.10;2.53;;;15.60;1.00;;;;;;2603055;54;20852;31
2023/03/31 10:44:32;;;;;;;5.63;2.27;;;15.60;1.00;;;;;;2603109;54;20574;31
2023/03/31 10:47:11;;;;;;;7.07;2.90;;;15.50;1.00;;;;;;2621972;46;20034;31
2023/03/31 10:49:47;;;;;;;6.13;2.72;;;15.40;1.00;;;;;;2603940;54;20111;31
2023/03/31 10:52:24;;;;;;;7.82;2.85;;;15.40;1.00;;;;;;2603589;54;19961;31
2023/03/31 10:55:03;;;;;;;7.15;3.67;;;15.40;1.00;;;;;;2603552;54;20034;31
2023/03/31 10:57:45;;;;;;;6.07;3.17;;;15.30;1.00;;;;;;2603597;54;19945;31
2023/03/31 11:00:25;;;;;;;5.10;2.97;;;15.40;1.00;;;;;;2622208;46;20027;31
2023/03/31 11:03:20;;;;;;;7.45;2.90;;;15.40;1.00;;;;;;2603854;54;20030;31
2023/03/31 11:05:57;;;;;;;5.10;2.30;;;15.50;1.00;;;;;;2603386;54;20051;31
2023/03/31 11:08:40;;;;;;;9.60;2.72;;;15.60;1.00;;;;;;2603590;54;21194;31
2023/03/31 11:11:25;;;;;;;7.53;2.30;;;15.60;1.00;;;;;;2603858;54;19935;31
2023/03/31 11:14:06;;;;;;;4.22;2.30;;;15.70;1.00;;;;;;2621937;46;19985;31
2023/03/31 11:16:47;;;;;;;8.30;2.10;;;15.70;1.00;;;;;;2603338;54;20056;31
2023/03/31 11:19:31;;;;;;;7.40;2.10;;;15.90;1.00;;;;;;2603658;54;20046;31
2023/03/31 11:22:11;;;;;;;4.28;2.17;;;16.20;1.00;;;;;;2622061;46;20030;31
2023/03/31 11:25:07;;;;;;;4.90;2.08;;;16.40;1.00;;;;;;2603486;54;20918;31
2023/03/31 11:27:58;;;;;;;9.75;2.20;;;16.60;1.00;;;;;;2621912;46;20762;31
2023/03/31 11:30:40;;;;;;;3.17;1.65;;;16.80;1.00;;;;;;2695833;39;20485;31
2023/03/31 11:33:14;;;;;;;5.50;1.98;;;16.80;1.00;;;;;;2603620;54;20780;31
2023/03/31 11:35:58;;;;;;;7.13;2.53;;;16.80;1.00;;;;;;2621326;46;20026;31
2023/03/31 11:38:46;;;;;;;6.55;2.10;;;16.80;1.00;;;;;;2621985;46;20288;31
2023/03/31 11:41:26;;;;;;;6.93;1.80;;;16.80;1.00;;;;;;2603231;54;20108;31
2023/03/31 11:44:02;;;;;;;3.15;1.80;;;16.80;1.00;;;;;;2603400;54;20136;31
2023/03/31 11:46:42;;;;;;;6.03;2.30;;;16.80;1.00;;;;;;2603578;54;20027;31
2023/03/31 11:49:20;;;;;;;5.35;1.75;;;16.80;1.00;;;;;;2602840;54;20877;31
2023/03/31 11:51:56;;;;;;;8.40;2.95;;;16.90;1.00;;;;;;2603585;54;20837;31
2023/03/31 11:54:33;;;;;;;5.78;2.30;;;16.90;1.00;;;;;;2603402;54;20140;31
2023/03/31 11:57:12;;;;;;;5.60;2.20;;;16.90;1.00;;;;;;2603309;54;20038;31
2023/03/31 11:59:47;;;;;;;5.28;2.13;;;16.90;1.00;;;;;;2603397;54;21010;31
2023/03/31 12:02:37;;;;;;;;;;;16.90;1.00;;;;;;2702273;39;20346;31
2023/03/31 12:05:17;;;;;;;6.43;2.33;;;16.90;1.00;;;;;;2621649;46;19986;31
2023/03/31 12:07:51;;;;;;;4.18;1.65;;;16.80;1.00;;;;;;2603328;54;20925;31
2023/03/31 12:10:34;;;;;;;7.30;1.60;;;16.80;1.00;;;;;;2603658;54;20093;31
2023/03/31 12:13:23;;;;;;;5.38;1.73;;;16.70;1.00;;;;;;2621505;46;20112;31
2023/03/31 12:16:05;;;;;;;5.78;1.60;;;16.70;1.00;;;;;;2603696;54;20919;31
2023/03/31 12:18:45;;;;;;;5.23;1.93;;;16.60;1.00;;;;;;2622051;46;20756;31
2023/03/31 12:21:21;;;;;;;4.95;2.20;;;16.50;1.00;;;;;;2603478;54;20246;31
2023/03/31 12:23:57;;;;;;;4.63;1.90;;;16.50;1.00;;;;;;2702253;39;21026;31
2023/03/31 12:26:38;;;;;;;6.23;1.63;;;16.40;1.00;;;;;;2603647;54;20034;31
2023/03/31 12:29:21;;;;;;;4.90;1.70;;;16.30;1.00;;;;;;2606964;46;20022;31
2023/03/31 12:31:59;;;;;;;3.90;1.47;;;16.20;1.00;;;;;;2602580;54;20057;31
2023/03/31 12:34:46;;;;;;;9.77;1.65;;;16.20;1.00;;;;;;2621106;46;20891;31
2023/03/31 12:37:46;;;;;;;8.02;1.13;;;16.20;1.00;;;;;;2603359;54;20022;31
2023/03/31 12:40:29;;;;;;;3.30;1.20;;;16.10;1.00;;;;;;2603397;54;20775;31
2023/03/31 12:43:37;;;;;;;4.63;1.63;;;16.10;1.00;;;;;;2603200;54;20902;31
2023/03/31 12:48:57;;;;;;;4.50;1.17;;;16.00;1.00;;;;;;2602821;54;22442;31
2023/03/31 12:51:54;;;;;;;2.58;0.98;;;16.00;1.00;;;;;;2621657;46;20026;31
2023/03/31 12:54:50;;;;;;;5.05;1.50;;;15.90;1.00;;;;;;2603329;54;20033;31
2023/03/31 12:57:28;;;;;;;4.25;1.10;;;15.90;1.00;;;;;;2603196;54;20819;31
2023/03/31 13:02:34;;;;;;;6.38;1.70;;;15.80;1.00;;;;;;2621962;46;20026;31
2023/03/31 13:05:37;;;;;;;4.15;1.60;;;15.60;4.40;;;;;;2603345;54;20847;31
2023/03/31 13:08:30;;;;;;;4.05;1.27;;;15.60;21.70;;;;;;2603026;54;20931;31
2023/03/31 13:11:11;;;;;;;4.78;1.60;;;15.50;18.70;;;;;;2621546;46;20902;31
2023/03/31 13:13:49;;;;;;;3.40;1.60;;;15.40;27.50;;;;;;2700835;39;20582;31
2023/03/31 13:16:34;;;;;;;3.75;1.60;;;15.40;32.20;;;;;;2621621;46;20030;31
2023/03/31 13:19:12;;;;;;;3.85;1.63;;;15.40;25.60;;;;;;2717075;39;21455;31
2023/03/31 13:21:57;;;;;;;4.40;2.00;;;15.30;26.60;;;;;;2603170;54;20027;31
2023/03/31 13:24:36;;;;;;;6.60;1.75;;;15.30;31.30;;;;;;2621564;46;20045;31
2023/03/31 13:27:31;;;;;;;3.90;1.40;;;15.20;35.20;;;;;;2720199;39;20481;31
2023/03/31 13:30:31;;;;;;;5.93;2.58;;;15.10;42.60;;;;;;2621682;46;20033;31
2023/03/31 13:33:07;;;;;;;4.40;1.90;;;15.20;61.00;;;;;;2621427;46;20034;31
2023/03/31 13:35:46;;;;;;;4.90;1.83;;;15.00;52.10;;;;;;2603423;54;20584;31
2023/03/31 13:38:20;;;;;;;6.50;2.03;;;14.90;70.10;;;;;;2603278;54;20100;31
2023/03/31 13:41:05;;;;;;;7.55;2.13;;;14.90;72.30;;;;;;2603045;54;20030;31
2023/03/31 13:43:59;;;;;;;8.68;2.08;;;14.80;80.00;;;;;;2603028;54;20026;31
2023/03/31 13:46:53;;;;;;;5.32;2.13;;;14.80;87.30;;;;;;2603184;54;20565;31
2023/03/31 13:49:43;;;;;;;7.82;2.10;;;14.70;90.60;;;;;;2621564;47;20030;31
2023/03/31 13:52:24;;;;;;;7.72;1.73;;;14.60;88.40;;;;;;2621405;47;20026;31
2023/03/31 13:55:22;;;;;;;8.20;1.90;;;14.60;91.40;;;;;;2603329;54;20577;31
2023/03/31 13:58:15;;;;;;;8.77;2.83;;;14.60;96.60;;;;;;2602794;54;20112;31
2023/03/31 14:04:33;;;;;;;11.13;2.83;;;14.40;99.60;;;;;;2603076;54;20029;31
2023/03/31 14:07:14;;;;;;;6.47;2.75;;;14.40;99.90;;;;;;2603011;54;20042;31
2023/03/31 14:09:51;;;;;;;10.30;3.15;;;14.40;99.90;;;;;;2603038;54;20034;31
2023/03/31 14:12:36;;;;;;;10.65;3.45;;;14.40;99.90;;;;;;2621644;47;20026;31
2023/03/31 14:15:20;;;;;;;11.23;3.78;;;14.30;99.90;;;;;;2701448;39;20500;31
2023/03/31 14:17:57;;;;;;;12.17;4.33;;;14.20;99.90;;;;;;2602573;54;20873;31
2023/03/31 14:20:40;;;;;;;13.20;3.30;;;14.10;99.90;;;;;;2603297;54;20038;31
2023/03/31 14:23:31;;;;;;;13.10;4.22;;;14.10;99.90;;;;;;2603642;54;20098;31
2023/03/31 14:29:14;;;;;;;11.60;4.55;;;14.10;99.90;;;;;;2603507;54;20902;31
2023/03/31 14:31:53;;;;;;;12.97;4.13;;;14.00;99.90;;;;;;2620988;46;20826;31
2023/03/31 14:34:40;;;;;;;11.63;3.40;;;14.00;99.90;;;;;;2603213;54;20258;31